Time;durP1;ratioP1;P1;durP2;ratioP2;P2;SDS_P1;SDS_P2;PMS_P1;PMS_P2;Temp;Humidity;BMP_temperature;BMP_pressure;BME280_temperature;BME280_humidity;BME280_pressure;Samples;Min_cycle;Max_cycle;Signal;HPM_P1;HPM_P2
2020/12/25 00:00:08;;;;;;;10.73;2.72;;;;;;;2.96;96.03;100539.13;4998959;28;20428;-72
2020/12/25 00:02:35;;;;;;;15.05;2.78;;;;;;;2.98;96.04;100548.75;5016120;28;20092;-71
2020/12/25 00:05:02;;;;;;;15.02;3.10;;;;;;;2.87;96.49;100528.81;5016147;28;20103;-72
2020/12/25 00:07:28;;;;;;;12.63;2.90;;;;;;;3.01;96.68;100550.44;5016367;28;20053;-73
2020/12/25 00:09:54;;;;;;;13.73;2.60;;;;;;;2.87;96.11;100528.81;5016007;28;20103;-73
2020/12/25 00:12:20;;;;;;;12.55;2.92;;;;;;;2.98;95.72;100550.50;5015801;28;20054;-72
2020/12/25 00:14:46;;;;;;;13.32;2.90;;;;;;;2.94;95.90;100535.66;5016323;28;20050;-73
2020/12/25 00:17:13;;;;;;;12.13;3.63;;;;;;;2.89;95.51;100540.16;5015745;28;20076;-72
2020/12/25 00:19:39;;;;;;;15.25;2.65;;;;;;;2.89;95.55;100558.63;4998872;28;20062;-73
2020/12/25 00:22:05;;;;;;;11.32;2.47;;;;;;;2.89;95.69;100548.06;5015942;28;20045;-71
2020/12/25 00:24:31;;;;;;;16.58;3.42;;;;;;;2.78;95.57;100559.72;5015718;28;20056;-71
2020/12/25 00:26:58;;;;;;;15.00;3.05;;;;;;;2.78;95.54;100548.31;5015216;28;20049;-72
2020/12/25 00:29:24;;;;;;;20.83;3.63;;;;;;;2.76;96.01;100548.34;5015090;28;20046;-73
2020/12/25 00:31:50;;;;;;;9.43;2.70;;;;;;;2.79;95.99;100550.91;5013306;28;20427;-72
2020/12/25 00:34:16;;;;;;;13.95;2.78;;;;;;;2.75;95.99;100546.63;5014933;28;20058;-72
2020/12/25 00:36:45;;;;;;;15.90;4.18;;;;;;;2.84;96.31;100554.31;4998253;28;20462;-73
2020/12/25 00:39:14;;;;;;;16.80;3.17;;;;;;;2.74;96.14;100541.38;5015440;28;20065;-73
2020/12/25 00:41:45;;;;;;;8.90;2.78;;;;;;;2.83;95.68;100557.84;5015411;28;20490;-73
2020/12/25 00:44:12;;;;;;;8.68;2.83;;;;;;;2.81;96.08;100561.44;5015372;28;20057;-72
2020/12/25 00:46:39;;;;;;;14.00;3.08;;;;;;;2.78;95.15;100557.09;5015513;28;20111;-73
2020/12/25 00:49:06;;;;;;;10.68;2.75;;;;;;;2.71;95.71;100559.00;5015745;28;20053;-72
2020/12/25 00:51:32;;;;;;;11.30;3.00;;;;;;;2.75;nan;100572.97;5015329;28;20092;-72
2020/12/25 00:53:59;;;;;;;12.13;2.58;;;;;;;2.77;95.68;100575.59;5015314;28;20058;-72
2020/12/25 00:56:25;;;;;;;13.27;4.20;;;;;;;2.77;95.39;100576.44;5015335;28;20049;-73
2020/12/25 00:58:51;;;;;;;14.73;3.30;;;;;;;2.76;95.57;100574.72;5015421;28;20046;-74
2020/12/25 01:01:18;;;;;;;6.03;2.65;;;;;;;2.84;95.52;100574.56;5015483;28;20046;-73
2020/12/25 01:03:45;;;;;;;19.90;3.55;;;;;;;2.90;94.91;100581.44;5015011;28;20061;-73
2020/12/25 01:06:16;;;;;;;13.48;2.72;;;;;;;2.85;95.14;100578.91;5014996;28;20060;-72
2020/12/25 01:08:43;;;;;;;13.18;3.67;;;;;;;2.90;95.43;100592.00;5015200;28;20076;-73
2020/12/25 01:11:10;;;;;;;10.73;2.63;;;;;;;2.93;94.32;100592.78;5014755;28;20104;-73
2020/12/25 01:13:38;;;;;;;12.77;2.67;;;;;;;2.91;95.00;100591.09;5015284;28;20053;-72
2020/12/25 01:16:18;;;;;;;14.77;3.47;;;;;;;2.99;94.83;100597.06;5015413;28;20057;-75
2020/12/25 01:18:48;;;;;;;11.20;3.05;;;;;;;2.97;95.27;100609.41;5015407;28;20073;-73
2020/12/25 01:21:16;;;;;;;6.20;2.30;;;;;;;3.03;94.95;100603.13;5015157;28;20054;-71
2020/12/25 01:23:43;;;;;;;13.65;2.97;;;;;;;2.90;94.71;100597.28;5015145;28;20321;-72
2020/12/25 01:26:11;;;;;;;9.85;2.75;;;;;;;3.04;94.86;100618.06;4997834;28;20428;-73
2020/12/25 01:28:37;;;;;;;13.05;2.75;;;;;;;3.02;95.01;100623.38;5015231;28;20060;-71
2020/12/25 01:31:05;;;;;;;8.70;2.67;;;;;;;3.10;94.30;100625.81;5015120;28;20110;-71
2020/12/25 01:33:35;;;;;;;8.60;2.50;;;;;;;2.85;93.91;100614.03;5015062;28;20053;-71
2020/12/25 01:36:02;;;;;;;8.70;2.72;;;;;;;2.98;93.39;100622.56;5015533;28;20050;-72
2020/12/25 01:38:28;;;;;;;9.95;2.45;;;;;;;2.99;93.93;100633.97;5014646;28;20066;-73
2020/12/25 01:40:54;;;;;;;9.32;2.97;;;;;;;2.98;94.86;100648.06;5015044;28;20108;-71
2020/12/25 01:43:23;;;;;;;16.30;2.88;;;;;;;2.98;95.44;100650.69;4997782;28;20054;-72
2020/12/25 01:45:49;;;;;;;10.43;2.60;;;;;;;2.99;94.59;100660.34;5014776;28;20108;-72
2020/12/25 01:48:16;;;;;;;8.32;2.13;;;;;;;3.04;94.30;100669.03;5014688;28;20058;-73
2020/12/25 01:50:42;;;;;;;10.15;2.45;;;;;;;3.03;93.94;100659.38;5014771;28;20054;-72
2020/12/25 01:53:10;;;;;;;14.65;3.33;;;;;;;3.05;94.22;100676.03;5014818;28;20068;-73
2020/12/25 01:55:38;;;;;;;11.35;2.60;;;;;;;3.09;92.55;100683.00;5014900;28;20108;-72
2020/12/25 01:58:06;;;;;;;8.20;2.25;;;;;;;3.04;92.63;100689.28;5014736;28;20104;-72
2020/12/25 02:00:32;;;;;;;7.05;2.03;;;;;;;2.97;93.26;100683.25;5014797;28;20436;-72
2020/12/25 02:02:59;;;;;;;11.05;2.22;;;;;;;2.98;93.20;100674.44;5015266;28;20053;-73
2020/12/25 02:05:25;;;;;;;7.82;2.20;;;;;;;2.95;93.63;100685.06;5014682;28;20054;-72
2020/12/25 02:07:51;;;;;;;11.98;2.20;;;;;;;2.96;93.92;100682.38;4997236;28;20399;-72
2020/12/25 02:10:18;;;;;;;11.13;2.13;;;;;;;3.03;93.65;100687.50;5014657;28;20120;-72
2020/12/25 02:12:45;;;;;;;8.00;2.17;;;;;;;2.96;93.08;100694.69;4997522;28;20050;-72
2020/12/25 02:15:12;;;;;;;12.93;2.47;;;;;;;2.97;93.93;100693.78;5014658;28;20084;-71
2020/12/25 02:17:57;;;;;;;9.65;2.20;;;;;;;2.90;93.59;100686.91;5015189;28;20065;-72
2020/12/25 02:20:23;;;;;;;12.05;2.65;;;;;;;2.93;93.89;100692.09;5018131;28;20061;-71
2020/12/25 02:22:50;;;;;;;9.00;2.10;;;;;;;3.04;93.59;100687.50;5018367;28;20053;-72
2020/12/25 02:25:16;;;;;;;13.20;2.60;;;;;;;3.06;92.96;100692.75;5018075;28;20054;-72
2020/12/25 02:27:42;;;;;;;9.05;2.38;;;;;;;2.94;92.97;100688.59;5018014;28;20057;-72
2020/12/25 02:30:09;;;;;;;9.75;2.72;;;;;;;3.07;92.65;100692.72;5017952;28;20104;-72
2020/12/25 02:32:35;;;;;;;13.98;2.20;;;;;;;2.99;93.29;100700.78;5017739;28;20444;-71
2020/12/25 02:35:11;;;;;;;10.50;2.88;;;;;;;3.10;93.32;100707.56;5018178;28;20057;-71
2020/12/25 02:37:37;;;;;;;10.63;2.47;;;;;;;3.08;93.28;100712.91;5017773;28;20462;-71
2020/12/25 02:40:04;;;;;;;10.13;2.70;;;;;;;3.07;93.42;100710.28;5017748;28;20424;-73
2020/12/25 02:42:30;;;;;;;8.48;2.05;;;;;;;2.98;93.39;100687.63;5017783;28;20054;-72
2020/12/25 02:44:56;;;;;;;11.02;2.42;;;;;;;3.04;93.22;100716.50;5017597;28;20054;-72
2020/12/25 02:47:23;;;;;;;16.42;2.33;;;;;;;3.07;93.36;100721.72;5017952;28;20053;-73
2020/12/25 02:49:55;;;;;;;9.02;2.13;;;;;;;2.98;94.12;100727.16;5017611;28;20053;-72
2020/12/25 02:52:22;;;;;;;9.38;2.53;;;;;;;2.93;93.81;100723.75;4999996;28;20050;-71
2020/12/25 02:54:48;;;;;;;13.88;2.65;;;;;;;2.98;93.75;100735.97;5016714;28;20060;-72
2020/12/25 02:57:14;;;;;;;10.93;2.17;;;;;;;2.97;92.91;100728.97;5017534;28;20121;-71
2020/12/25 02:59:40;;;;;;;9.95;2.25;;;;;;;3.01;93.21;100737.69;5016872;28;20092;-72
2020/12/25 03:02:06;;;;;;;12.07;2.80;;;;;;;3.01;93.48;100737.69;5017420;28;20412;-71
2020/12/25 03:04:32;;;;;;;12.15;2.13;;;;;;;2.91;93.59;100738.75;5017391;28;20058;-71
2020/12/25 03:06:58;;;;;;;14.50;2.47;;;;;;;2.99;93.42;100752.63;5017386;28;20147;-72
2020/12/25 03:09:24;;;;;;;17.80;2.28;;;;;;;2.93;93.80;100755.41;5000044;28;20065;-71
2020/12/25 03:11:50;;;;;;;8.30;2.08;;;;;;;2.93;93.13;100758.03;5016912;28;20080;-71
2020/12/25 03:14:16;;;;;;;11.63;3.10;;;;;;;2.92;93.39;100753.66;5017132;28;20054;-71
2020/12/25 03:16:42;;;;;;;8.27;2.53;;;;;;;2.94;93.07;100755.38;5017121;28;20489;-72
2020/12/25 03:19:08;;;;;;;5.90;2.03;;;;;;;2.93;93.41;100765.94;5017200;28;20057;-72
2020/12/25 03:21:35;;;;;;;6.60;2.00;;;;;;;2.84;93.54;100757.31;5017298;28;20050;-72
2020/12/25 03:24:01;;;;;;;5.45;2.15;;;;;;;2.80;92.66;100762.69;5010023;28;20380;-71
2020/12/25 03:26:27;;;;;;;7.53;2.20;;;;;;;2.69;93.48;100765.53;4997724;28;20061;-72
2020/12/25 03:28:53;;;;;;;9.55;1.98;;;;;;;2.67;94.33;100760.28;4997469;28;20070;-72
2020/12/25 03:31:19;;;;;;;11.80;2.90;;;;;;;2.68;93.43;100771.69;4997427;28;20050;-73
2020/12/25 03:33:45;;;;;;;16.40;3.45;;;;;;;2.67;93.72;100776.09;4997416;28;20054;-72
2020/12/25 03:36:11;;;;;;;11.63;2.10;;;;;;;2.68;93.44;100771.69;4997474;28;20050;-72
2020/12/25 03:38:37;;;;;;;10.88;2.78;;;;;;;2.56;94.04;100772.78;4980025;28;20058;-72
2020/12/25 03:41:04;;;;;;;12.10;2.40;;;;;;;2.60;93.97;100777.09;4995931;28;20054;-72
2020/12/25 03:43:30;;;;;;;12.93;2.97;;;;;;;2.60;93.93;100776.25;4997367;28;20109;-72
2020/12/25 03:45:56;;;;;;;16.25;2.97;;;;;;;2.52;93.92;100771.97;4997148;28;20112;-73
2020/12/25 03:48:22;;;;;;;10.15;1.95;;;;;;;2.48;94.05;100770.28;4996994;28;20050;-72
2020/12/25 03:50:48;;;;;;;12.88;2.22;;;;;;;2.39;93.82;100757.28;4996750;28;20478;-71
2020/12/25 03:53:15;;;;;;;12.13;2.10;;;;;;;2.35;93.62;100776.66;4997306;28;20050;-73
2020/12/25 03:55:41;;;;;;;14.02;2.45;;;;;;;2.30;93.97;100790.75;4995639;28;20057;-72
2020/12/25 03:58:07;;;;;;;14.77;2.10;;;;;;;2.24;94.39;100782.09;4997127;28;20058;-73
2020/12/25 04:00:33;;;;;;;18.05;2.58;;;;;;;2.09;94.08;100788.47;4996961;28;20047;-72
2020/12/25 04:02:59;;;;;;;10.27;2.42;;;;;;;2.05;94.22;100784.19;4997041;28;20046;-72
2020/12/25 04:05:25;;;;;;;14.18;3.58;;;;;;;2.05;94.54;100787.66;4996636;28;20062;-72
2020/12/25 04:07:51;;;;;;;9.73;2.10;;;;;;;2.03;94.96;100805.25;4996580;28;20117;-74
2020/12/25 04:10:18;;;;;;;13.35;3.05;;;;;;;2.06;94.46;100804.34;4996573;28;20073;-72
2020/12/25 04:12:44;;;;;;;10.77;2.50;;;;;;;1.98;94.49;100807.97;4996684;28;20388;-72
2020/12/25 04:15:10;;;;;;;9.65;2.08;;;;;;;1.95;95.00;100817.69;4996599;28;20186;-72
2020/12/25 04:17:36;;;;;;;9.38;2.25;;;;;;;1.72;94.87;100801.31;4996668;28;20058;-71
2020/12/25 04:20:03;;;;;;;13.30;2.00;;;;;;;1.86;95.06;100829.19;4996364;28;20428;-71
2020/12/25 04:22:29;;;;;;;14.23;2.33;;;;;;;1.67;95.30;100807.50;4996351;28;20062;-72
2020/12/25 04:24:55;;;;;;;10.60;2.05;;;;;;;1.82;95.01;100835.38;5010334;28;20411;-72
2020/12/25 04:27:21;;;;;;;10.07;1.98;;;;;;;1.79;95.22;100832.81;5015886;28;20432;-71
2020/12/25 04:29:47;;;;;;;10.38;1.98;;;;;;;1.79;95.15;100849.47;5015962;28;20108;-72
2020/12/25 04:32:13;;;;;;;13.75;2.22;;;;;;;1.72;95.37;100851.31;5015710;28;20177;-72
2020/12/25 04:34:40;;;;;;;12.43;2.50;;;;;;;1.74;95.89;100853.94;5015913;28;20050;-72
2020/12/25 04:37:06;;;;;;;8.20;2.03;;;;;;;1.71;95.20;100859.22;5016430;28;20058;-71
2020/12/25 04:39:33;;;;;;;12.95;2.25;;;;;;;1.69;95.58;100864.50;5015424;28;20160;-71
2020/12/25 04:41:59;;;;;;;14.50;2.33;;;;;;;1.48;95.08;100834.94;5015427;28;20096;-71
2020/12/25 04:44:25;;;;;;;11.25;2.08;;;;;;;1.68;95.06;100862.75;5015909;28;20058;-72
2020/12/25 04:46:52;;;;;;;11.13;2.45;;;;;;;1.74;95.08;100867.09;5015829;28;20129;-72
2020/12/25 04:49:21;;;;;;;8.20;2.00;;;;;;;1.72;95.18;100855.69;5015762;28;20057;-72
2020/12/25 04:51:47;;;;;;;9.18;1.70;;;;;;;1.77;94.18;100867.03;5015548;28;20053;-72
2020/12/25 04:54:13;;;;;;;11.55;2.15;;;;;;;1.82;94.64;100875.75;5015384;28;20099;-72
2020/12/25 04:56:39;;;;;;;10.70;2.05;;;;;;;1.79;94.61;100872.28;5015312;28;20396;-72
2020/12/25 04:59:06;;;;;;;11.45;2.22;;;;;;;1.70;94.40;100874.13;5015407;28;20424;-72
2020/12/25 05:01:32;;;;;;;21.65;2.67;;;;;;;1.68;94.39;100882.97;5015313;28;20100;-72
2020/12/25 05:03:58;;;;;;;10.73;2.67;;;;;;;1.66;95.00;100872.44;5015560;28;20198;-72
2020/12/25 05:06:25;;;;;;;21.55;3.67;;;;;;;1.64;95.31;100879.50;4981951;28;20053;-73
2020/12/25 05:08:52;;;;;;;10.18;2.90;;;;;;;1.66;95.21;100869.81;5015260;28;20134;-73
2020/12/25 05:11:20;;;;;;;9.90;2.28;;;;;;;1.67;94.92;100871.56;5014803;28;20444;-72
2020/12/25 05:13:49;;;;;;;10.43;2.33;;;;;;;1.75;94.94;100874.94;5015420;28;20057;-72
2020/12/25 05:16:16;;;;;;;20.90;2.80;;;;;;;1.67;94.91;100882.06;5015134;28;20053;-72
2020/12/25 05:18:44;;;;;;;11.55;2.15;;;;;;;1.73;94.95;100882.00;5015489;28;20061;-73
2020/12/25 05:21:16;;;;;;;8.63;2.13;;;;;;;1.70;94.92;100891.69;5015086;28;20053;-72
2020/12/25 05:23:45;;;;;;;11.88;2.83;;;;;;;1.71;94.95;100896.94;5010650;28;20054;-72
2020/12/25 05:26:12;;;;;;;6.88;3.10;;;;;;;1.66;95.44;100896.13;4995395;28;20054;-72
2020/12/25 05:28:47;;;;;;;8.80;3.63;;;;;;;1.61;95.08;100896.19;4995432;28;20101;-71
2020/12/25 05:31:14;;;;;;;8.95;2.78;;;;;;;1.56;95.14;100894.47;4995317;28;20490;-71
2020/12/25 05:33:40;;;;;;;15.52;3.33;;;;;;;1.60;95.34;100896.19;4995654;28;20392;-72
2020/12/25 05:36:09;;;;;;;7.28;2.40;;;;;;;1.58;95.42;100904.09;4995354;28;20054;-72
2020/12/25 05:38:37;;;;;;;8.45;2.65;;;;;;;1.61;96.03;100903.19;4995518;28;20054;-72
2020/12/25 05:41:05;;;;;;;16.48;2.85;;;;;;;1.60;95.60;100911.97;4995604;28;20054;-72
2020/12/25 05:43:32;;;;;;;14.07;3.08;;;;;;;1.55;95.40;100911.16;4995433;28;20379;-71
2020/12/25 05:45:58;;;;;;;12.00;2.78;;;;;;;1.54;95.49;100910.31;4995291;28;20356;-72
2020/12/25 05:48:25;;;;;;;11.60;2.50;;;;;;;1.57;95.65;100917.31;4978074;28;20329;-72
2020/12/25 05:50:51;;;;;;;9.05;2.40;;;;;;;1.51;95.13;100923.47;4995245;28;20102;-72
2020/12/25 05:53:20;;;;;;;7.55;2.40;;;;;;;1.52;95.70;100922.59;4996466;28;20424;-71
2020/12/25 05:55:47;;;;;;;11.43;2.72;;;;;;;1.60;95.74;100925.16;4999325;28;20392;-71
2020/12/25 05:58:15;;;;;;;12.15;3.05;;;;;;;1.61;95.81;100935.66;4998934;28;20057;-72
2020/12/25 06:00:43;;;;;;;8.30;3.13;;;;;;;1.59;95.61;100926.03;4999140;28;20416;-72
2020/12/25 06:03:13;;;;;;;10.63;2.33;;;;;;;1.59;95.63;100932.16;4999075;28;20062;-74
2020/12/25 06:05:41;;;;;;;11.70;2.35;;;;;;;1.70;95.33;100942.56;4998841;28;20051;-71
2020/12/25 06:08:16;;;;;;;8.55;2.40;;;;;;;1.71;95.26;100938.19;4998904;28;20108;-72
2020/12/25 06:10:45;;;;;;;8.20;2.20;;;;;;;1.73;95.00;100932.00;4998656;28;20085;-72
2020/12/25 06:13:16;;;;;;;7.00;1.90;;;;;;;1.57;94.90;100923.41;4998539;28;20050;-73
2020/12/25 06:15:49;;;;;;;8.85;2.40;;;;;;;1.66;94.99;100946.13;4998654;28;20134;-71
2020/12/25 06:18:21;;;;;;;4.68;1.90;;;;;;;1.65;94.88;100947.03;4998892;28;20050;-73
2020/12/25 06:20:56;;;;;;;14.77;2.10;;;;;;;1.53;95.50;100934.00;4998548;28;20058;-71
2020/12/25 06:23:24;;;;;;;11.80;2.40;;;;;;;1.47;95.42;100938.44;5000109;28;20093;-70
2020/12/25 06:25:51;;;;;;;15.77;2.15;;;;;;;1.53;95.30;100942.75;5018009;28;20061;-73
2020/12/25 06:28:18;;;;;;;10.77;2.10;;;;;;;1.50;95.30;100948.06;5017961;28;20424;-72
2020/12/25 06:30:45;;;;;;;13.70;2.40;;;;;;;1.32;95.56;100935.97;5017977;28;20137;-72
2020/12/25 06:33:11;;;;;;;6.40;1.95;;;;;;;1.36;95.26;100945.53;5000554;28;20412;-73
2020/12/25 06:35:39;;;;;;;13.35;2.30;;;;;;;1.31;95.45;100958.75;5017997;28;20096;-73
2020/12/25 06:38:16;;;;;;;12.07;2.38;;;;;;;1.25;95.92;100958.81;5017780;28;20124;-74
2020/12/25 06:40:43;;;;;;;6.95;2.03;;;;;;;1.32;96.68;100964.91;5018110;28;20115;-72
2020/12/25 06:43:18;;;;;;;13.07;2.42;;;;;;;1.27;96.12;100954.44;5017962;28;20054;-73
2020/12/25 06:45:51;;;;;;;9.45;1.95;;;;;;;1.22;95.74;100956.22;5017771;28;20436;-75
2020/12/25 06:48:19;;;;;;;5.82;1.95;;;;;;;1.28;95.96;100969.31;5017775;28;20046;-73
2020/12/25 06:50:55;;;;;;;10.18;2.05;;;;;;;1.29;95.57;100973.69;5017554;28;20057;-72
2020/12/25 06:53:36;;;;;;;7.18;1.50;;;;;;;1.30;95.81;100982.47;5000220;28;20060;-71
2020/12/25 06:56:19;;;;;;;15.25;2.25;;;;;;;1.33;95.56;100974.53;5017624;28;20062;-72
2020/12/25 06:58:46;;;;;;;14.02;1.92;;;;;;;1.35;95.45;100980.63;5017405;28;20710;-73
2020/12/25 07:01:16;;;;;;;11.73;2.25;;;;;;;1.32;95.65;100981.53;5017496;28;20164;-72
2020/12/25 07:03:42;;;;;;;11.48;2.30;;;;;;;1.34;95.69;100986.78;5017248;28;20120;-72
2020/12/25 07:06:12;;;;;;;10.20;1.80;;;;;;;1.35;94.42;100970.13;5017524;28;20466;-77
2020/12/25 07:08:44;;;;;;;10.38;1.73;;;;;;;1.46;94.49;100999.81;5017567;28;20136;-79
2020/12/25 07:11:11;;;;;;;7.20;2.75;;;;;;;1.48;94.94;100998.03;5000102;28;20057;-77
2020/12/25 07:13:40;;;;;;;10.53;2.03;;;;;;;1.53;94.38;101002.41;5017451;28;20069;-79
2020/12/25 07:16:08;;;;;;;11.57;2.05;;;;;;;1.59;94.25;101005.81;5000194;28;20320;-77
2020/12/25 07:18:37;;;;;;;6.55;1.80;;;;;;;1.60;94.23;101001.44;5017399;28;20045;-80
2020/12/25 07:21:07;;;;;;;8.55;2.03;;;;;;;1.57;94.17;101012.03;5017053;28;20053;-77
2020/12/25 07:23:33;;;;;;;12.25;2.13;;;;;;;1.59;94.71;101010.25;5016609;28;20046;-75
2020/12/25 07:26:01;;;;;;;5.85;2.13;;;;;;;1.59;95.06;101003.19;5016984;28;20112;-75
2020/12/25 07:28:28;;;;;;;8.10;2.13;;;;;;;1.66;94.59;101024.19;4997238;28;20120;-75
2020/12/25 07:30:57;;;;;;;12.18;2.60;;;;;;;1.68;94.68;101025.94;5016620;28;20057;-73
2020/12/25 07:33:23;;;;;;;7.07;2.05;;;;;;;1.69;94.42;101027.66;5013839;28;20041;-76
2020/12/25 07:35:51;;;;;;;8.38;2.45;;;;;;;1.71;94.56;101028.53;5016623;28;20403;-74
2020/12/25 07:38:26;;;;;;;7.18;2.50;;;;;;;1.70;94.20;101033.81;5015464;28;20050;-72
2020/12/25 07:40:52;;;;;;;8.93;2.35;;;;;;;1.74;94.73;101030.28;5016934;28;20057;-71
2020/12/25 07:43:18;;;;;;;12.10;2.58;;;;;;;1.71;94.55;101033.81;5015962;28;20050;-72
2020/12/25 07:45:47;;;;;;;11.73;3.00;;;;;;;1.75;94.24;101039.91;5016586;28;20443;-74
2020/12/25 07:48:18;;;;;;;8.43;3.42;;;;;;;1.66;94.59;101043.50;5016712;28;20054;-79
2020/12/25 07:50:45;;;;;;;;;;;;;;;1.70;94.58;101044.34;5016159;28;20066;-72
2020/12/25 07:53:16;;;;;;;6.80;2.17;;;;;;;1.60;94.57;101041.81;5016548;28;19925;-73
2020/12/25 07:55:47;;;;;;;5.65;2.67;;;;;;;1.51;94.65;101023.47;5016437;28;20057;-73
2020/12/25 07:58:18;;;;;;;7.00;2.58;;;;;;;1.64;94.58;101045.28;5016317;28;20108;-74
2020/12/25 08:00:45;;;;;;;14.93;3.30;;;;;;;1.66;94.66;101043.50;4999037;28;20081;-74
2020/12/25 08:03:12;;;;;;;9.43;2.50;;;;;;;1.63;94.49;101046.16;5014871;28;20054;-74
2020/12/25 08:05:38;;;;;;;7.05;2.75;;;;;;;1.64;94.61;101050.53;5016227;28;20061;-72
2020/12/25 08:08:06;;;;;;;7.10;2.47;;;;;;;1.60;94.39;101054.09;5016119;28;20082;-74
2020/12/25 08:10:36;;;;;;;8.43;2.45;;;;;;;1.65;93.89;101054.03;5016133;28;20049;-70
2020/12/25 08:13:06;;;;;;;4.60;2.25;;;;;;;1.57;94.75;101054.13;5015584;28;20058;-73
2020/12/25 08:15:33;;;;;;;9.07;2.80;;;;;;;1.59;94.38;101062.88;5015431;28;20138;-71
2020/12/25 08:18:03;;;;;;;4.28;2.10;;;;;;;1.51;94.67;101052.41;5016076;28;20058;-72
2020/12/25 08:20:32;;;;;;;6.50;2.60;;;;;;;1.51;95.34;101062.91;5015811;28;20427;-73
2020/12/25 08:22:59;;;;;;;7.88;2.72;;;;;;;1.60;94.75;101061.97;5015945;28;20438;-73
2020/12/25 08:25:28;;;;;;;8.07;2.17;;;;;;;1.64;94.33;101063.69;5014993;28;20070;-72
2020/12/25 08:27:58;;;;;;;7.82;2.78;;;;;;;1.53;94.38;101061.13;5012353;28;20058;-73
2020/12/25 08:30:25;;;;;;;9.13;2.60;;;;;;;1.51;94.88;101069.97;5015314;28;20061;-72
2020/12/25 08:32:59;;;;;;;6.22;2.78;;;;;;;1.55;95.27;101072.56;5015809;28;20050;-72
2020/12/25 08:35:30;;;;;;;4.72;2.28;;;;;;;1.55;94.93;101066.41;5015803;28;20050;-72
2020/12/25 08:38:02;;;;;;;9.00;2.42;;;;;;;1.57;94.91;101067.28;5013410;28;20068;-73
2020/12/25 08:40:38;;;;;;;11.48;2.83;;;;;;;1.58;94.71;101069.88;5013581;28;20092;-74
2020/12/25 08:43:11;;;;;;;10.60;2.90;;;;;;;1.56;94.30;101068.13;5012288;28;20053;-74
2020/12/25 08:45:59;;;;;;;6.65;2.55;;;;;;;1.51;94.12;101067.34;5012506;28;20057;-76
2020/12/25 08:48:27;;;;;;;7.70;2.45;;;;;;;1.42;94.44;101060.38;5012142;28;20050;-75
2020/12/25 08:51:15;;;;;;;11.18;3.40;;;;;;;1.52;94.81;101082.22;5015331;28;20388;-77
2020/12/25 08:53:54;;;;;;;6.20;2.45;;;;;;;1.54;95.24;101070.81;5014256;28;20045;-77
2020/12/25 08:56:22;;;;;;;11.10;2.92;;;;;;;1.51;94.93;101070.81;5012939;28;20069;-75
2020/12/25 08:58:58;;;;;;;14.63;2.53;;;;;;;1.57;94.74;101080.44;5015498;28;20050;-76
2020/12/25 09:01:27;;;;;;;10.75;2.47;;;;;;;1.54;95.24;101077.81;5015390;28;20057;-76
2020/12/25 09:03:53;;;;;;;10.27;2.88;;;;;;;1.58;95.29;101082.19;5014901;28;20049;-76
2020/12/25 09:06:20;;;;;;;11.02;2.42;;;;;;;1.53;95.12;101069.03;5014387;28;20127;-73
2020/12/25 09:08:46;;;;;;;7.57;2.10;;;;;;;1.59;93.98;101091.81;5014034;28;20058;-76
2020/12/25 09:11:17;;;;;;;7.90;2.60;;;;;;;1.55;94.00;101082.19;5014037;28;20058;-76
2020/12/25 09:13:43;;;;;;;;;;;;;;;1.63;94.24;101091.75;5013257;28;20108;-76
2020/12/25 09:16:11;;;;;;;9.77;2.40;;;;;;;1.66;94.48;101095.25;5014119;28;20353;-76
2020/12/25 09:18:38;;;;;;;5.55;1.85;;;;;;;1.65;93.74;101089.13;5010181;28;20426;-75
2020/12/25 09:21:08;;;;;;;5.65;2.40;;;;;;;1.66;93.40;101084.72;5014748;28;20089;-75
2020/12/25 09:23:35;;;;;;;13.48;1.95;;;;;;;1.74;93.64;101096.94;5014769;28;20073;-74
2020/12/25 09:26:03;;;;;;;13.35;3.05;;;;;;;1.82;93.45;101088.97;5014734;28;20395;-74
2020/12/25 09:28:29;;;;;;;10.43;1.95;;;;;;;2.01;93.51;101094.03;5017847;28;20061;-73
2020/12/25 09:30:56;;;;;;;8.95;2.25;;;;;;;2.10;92.97;101088.69;5018760;28;20046;-73
2020/12/25 09:33:23;;;;;;;8.77;2.30;;;;;;;2.27;91.89;101108.69;5017350;28;20045;-72
2020/12/25 09:35:51;;;;;;;11.25;2.65;;;;;;;2.25;91.96;101098.19;5018698;28;20096;-72
2020/12/25 09:38:18;;;;;;;9.25;2.10;;;;;;;2.32;91.14;101109.50;5018403;28;20054;-73
2020/12/25 09:40:47;;;;;;;8.63;1.75;;;;;;;2.27;92.08;101109.56;5018456;28;20053;-72
2020/12/25 09:43:14;;;;;;;10.95;2.35;;;;;;;2.40;91.64;101114.72;5018731;28;20054;-74
2020/12/25 09:45:42;;;;;;;11.85;2.38;;;;;;;2.36;91.64;101103.31;5018909;28;20395;-75
2020/12/25 09:48:08;;;;;;;7.47;1.98;;;;;;;2.49;91.38;101109.31;4998818;28;20436;-72
2020/12/25 09:50:34;;;;;;;7.45;1.98;;;;;;;2.46;91.18;101111.13;5018649;28;20046;-71
2020/12/25 09:53:01;;;;;;;6.07;1.90;;;;;;;2.55;91.00;101109.25;5018333;28;20046;-73
2020/12/25 09:55:27;;;;;;;6.38;1.92;;;;;;;2.60;90.67;101106.53;5017046;28;20393;-75
2020/12/25 09:57:54;;;;;;;8.48;2.20;;;;;;;2.60;91.24;101108.31;5018812;28;20060;-73
2020/12/25 10:00:21;;;;;;;8.57;1.95;;;;;;;2.56;91.30;101100.44;5018364;28;20053;-70
2020/12/25 10:02:47;;;;;;;8.88;1.95;;;;;;;2.66;90.58;101106.47;5000998;28;20088;-78
2020/12/25 10:05:13;;;;;;;5.18;1.95;;;;;;;2.70;90.30;101112.56;5018854;28;20391;-76
2020/12/25 10:07:39;;;;;;;6.40;2.15;;;;;;;2.72;90.18;101103.75;5018414;28;20057;-71
2020/12/25 10:10:07;;;;;;;7.10;1.67;;;;;;;2.84;90.49;101115.91;5018448;28;20053;-73
2020/12/25 10:12:34;;;;;;;7.28;2.08;;;;;;;2.87;90.93;101122.03;5017647;28;20045;-73
2020/12/25 10:15:00;;;;;;;16.02;2.50;;;;;;;2.89;89.87;101126.38;5017593;28;20070;-75
2020/12/25 10:17:26;;;;;;;9.18;2.35;;;;;;;2.92;89.82;101129.00;5016968;28;20077;-71
2020/12/25 10:19:52;;;;;;;12.98;2.38;;;;;;;3.03;88.91;101126.19;5000673;28;20042;-72
2020/12/25 10:22:18;;;;;;;14.32;3.05;;;;;;;2.95;89.67;101123.66;5018124;28;20058;-74
2020/12/25 10:24:44;;;;;;;6.97;1.80;;;;;;;3.00;89.52;101126.25;5018146;28;20422;-71
2020/12/25 10:27:13;;;;;;;10.25;1.80;;;;;;;2.99;88.56;101117.47;5009682;28;20085;-77
2020/12/25 10:29:39;;;;;;;15.50;2.30;;;;;;;3.02;89.47;101121.81;5006397;28;20054;-78
2020/12/25 10:32:06;;;;;;;11.30;2.17;;;;;;;3.08;90.51;101127.00;4976610;28;20081;-77
2020/12/25 10:34:33;;;;;;;13.38;5.40;;;;;;;3.04;89.25;101121.81;4990094;28;20494;-76
2020/12/25 10:37:02;;;;;;;13.35;2.30;;;;;;;3.10;89.81;101119.94;5032527;28;20057;-72
2020/12/25 10:39:28;;;;;;;10.75;2.20;;;;;;;3.07;88.41;101112.09;5036856;28;20049;-72
2020/12/25 10:41:54;;;;;;;10.02;2.20;;;;;;;3.14;88.99;101119.91;5036701;28;20123;-72
2020/12/25 10:44:20;;;;;;;10.75;2.10;;;;;;;3.17;89.00;101122.50;5020084;28;20053;-72
2020/12/25 10:46:46;;;;;;;11.15;2.45;;;;;;;3.29;88.82;101131.97;5036920;28;20050;-71
2020/12/25 10:49:13;;;;;;;12.48;1.92;;;;;;;3.23;88.78;101125.91;5036571;28;20080;-71
2020/12/25 10:51:46;;;;;;;9.98;2.22;;;;;;;3.13;88.96;101126.94;5037562;28;20056;-73
2020/12/25 10:54:13;;;;;;;13.20;1.92;;;;;;;3.18;89.04;101130.41;5036483;28;20045;-77
2020/12/25 10:56:40;;;;;;;10.82;2.00;;;;;;;3.32;88.53;101124.88;5036843;28;20286;-73
2020/12/25 10:59:21;;;;;;;11.18;2.25;;;;;;;3.39;87.89;101123.03;5019923;28;20049;-74
2020/12/25 11:01:48;;;;;;;13.75;2.42;;;;;;;3.40;88.67;101124.78;5013638;28;20064;-71
2020/12/25 11:04:14;;;;;;;13.80;2.08;;;;;;;3.40;88.15;101120.34;5028564;28;20140;-71
2020/12/25 11:06:41;;;;;;;12.75;1.77;;;;;;;3.54;88.42;101127.19;5032835;28;20359;-71
2020/12/25 11:09:09;;;;;;;10.85;2.53;;;;;;;3.51;88.10;101120.22;5021860;28;20057;-70
2020/12/25 11:11:38;;;;;;;13.80;2.30;;;;;;;3.58;88.25;101126.25;5015840;28;20498;-70
2020/12/25 11:14:05;;;;;;;10.25;2.20;;;;;;;3.62;86.64;101130.59;5032202;28;20343;-70
2020/12/25 11:16:34;;;;;;;15.35;2.15;;;;;;;3.71;86.62;101128.69;5035712;28;20053;-70
2020/12/25 11:19:01;;;;;;;12.43;1.98;;;;;;;3.70;87.29;101132.25;5033916;28;20537;-72
2020/12/25 11:21:31;;;;;;;9.43;2.40;;;;;;;3.77;87.16;101123.31;5035881;28;20045;-71
2020/12/25 11:24:00;;;;;;;12.20;2.17;;;;;;;3.76;87.01;101121.56;5036440;28;20045;-74
2020/12/25 11:26:27;;;;;;;15.45;2.42;;;;;;;3.79;86.17;101113.59;5019155;28;20427;-77
2020/12/25 11:28:55;;;;;;;13.75;2.60;;;;;;;3.71;86.60;101111.06;5036861;28;20057;-75
2020/12/25 11:31:22;;;;;;;13.73;4.30;;;;;;;3.72;87.23;101119.88;5036429;28;20332;-74